Time;durP1;ratioP1;P1;durP2;ratioP2;P2;SDS_P1;SDS_P2;PMS_P1;PMS_P2;Temp;Humidity;BMP_temperature;BMP_pressure;BME280_temperature;BME280_humidity;BME280_pressure;Samples;Min_cycle;Max_cycle;Signal;HPM_P1;HPM_P2
2022/10/31 00:02:24;;;;;;;5.85;3.50;;;15.90;84.10;;;;;;4952324;28;20073;-80
2022/10/31 00:04:50;;;;;;;5.47;3.80;;;15.90;84.30;;;;;;4968394;28;20286;-80
2022/10/31 00:07:15;;;;;;;5.80;3.60;;;15.90;84.40;;;;;;4933151;28;20034;-80
2022/10/31 00:09:41;;;;;;;5.50;3.60;;;15.90;84.50;;;;;;4964368;28;20038;-80
2022/10/31 00:12:07;;;;;;;5.70;3.43;;;15.90;84.50;;;;;;4969532;28;20022;-80
2022/10/31 00:14:32;;;;;;;6.38;3.72;;;15.90;84.50;;;;;;4949953;28;20035;-80
2022/10/31 00:16:58;;;;;;;5.50;3.60;;;15.90;84.60;;;;;;4963682;28;20513;-80
2022/10/31 00:19:23;;;;;;;7.05;3.92;;;15.90;84.60;;;;;;4957369;28;20401;-80
2022/10/31 00:21:51;;;;;;;5.77;3.80;;;15.90;84.60;;;;;;4953615;28;20038;-80
2022/10/31 00:24:17;;;;;;;5.35;3.75;;;15.80;84.80;;;;;;4966192;28;20027;-80
2022/10/31 00:26:42;;;;;;;5.27;3.40;;;15.80;84.50;;;;;;4975151;28;20162;-80
2022/10/31 00:29:08;;;;;;;5.95;3.80;;;15.80;84.50;;;;;;4956696;28;20389;-80
2022/10/31 00:31:34;;;;;;;5.30;3.63;;;15.80;84.50;;;;;;4960695;28;20037;-80
2022/10/31 00:33:59;;;;;;;4.80;3.20;;;15.80;84.50;;;;;;4951034;28;20054;-80
2022/10/31 00:36:25;;;;;;;6.33;3.53;;;15.70;84.40;;;;;;4959647;28;20030;-80
2022/10/31 00:38:51;;;;;;;4.23;3.03;;;15.70;84.50;;;;;;4950309;28;20031;-80
2022/10/31 00:41:17;;;;;;;5.28;3.42;;;15.60;84.30;;;;;;4962593;28;20114;-80
2022/10/31 00:43:43;;;;;;;5.65;3.58;;;15.60;84.40;;;;;;4956561;28;20156;-80
2022/10/31 00:46:10;;;;;;;8.23;3.57;;;15.50;84.20;;;;;;4970013;28;20093;-80
2022/10/31 00:48:35;;;;;;;5.53;3.53;;;15.50;85.10;;;;;;4969560;28;20026;-80
2022/10/31 00:51:01;;;;;;;6.25;3.42;;;15.50;84.30;;;;;;4970093;28;20011;-80
2022/10/31 00:53:26;;;;;;;5.30;3.33;;;15.50;84.50;;;;;;4925502;28;20030;-80
2022/10/31 00:55:52;;;;;;;6.63;3.50;;;15.40;84.50;;;;;;4946901;28;20026;-80
2022/10/31 00:58:18;;;;;;;5.53;3.40;;;15.30;84.40;;;;;;4974988;28;20446;-80
2022/10/31 01:00:43;;;;;;;4.85;3.17;;;15.30;84.40;;;;;;4967194;28;20096;-80
2022/10/31 01:03:09;;;;;;;4.60;3.23;;;15.30;84.40;;;;;;4954720;28;20022;-80
2022/10/31 01:05:35;;;;;;;5.03;3.40;;;15.20;84.30;;;;;;4962259;28;20029;-80
2022/10/31 01:08:00;;;;;;;5.85;3.35;;;15.20;84.40;;;;;;4947656;28;20054;-80
2022/10/31 01:10:26;;;;;;;4.57;3.03;;;15.10;84.20;;;;;;4967139;28;20035;-80
2022/10/31 01:12:52;;;;;;;5.97;3.20;;;15.00;84.20;;;;;;4969752;28;20571;-80
2022/10/31 01:15:21;;;;;;;4.27;2.60;;;15.00;84.20;;;;;;4968890;28;20117;-80
2022/10/31 01:17:48;;;;;;;6.47;2.90;;;15.00;84.40;;;;;;4968616;28;20282;-80
2022/10/31 01:20:15;;;;;;;4.28;2.90;;;14.90;84.30;;;;;;4958039;28;20040;-80
2022/10/31 01:22:40;;;;;;;5.45;3.05;;;14.90;84.40;;;;;;4950889;28;21022;-81
2022/10/31 01:25:08;;;;;;;4.33;3.03;;;14.80;84.40;;;;;;4955723;28;20030;-81
2022/10/31 01:27:34;;;;;;;4.53;2.80;;;14.80;84.40;;;;;;4945564;28;20219;-80
2022/10/31 01:29:59;;;;;;;4.70;2.77;;;14.70;84.50;;;;;;4977226;28;20538;-80
2022/10/31 01:32:28;;;;;;;5.78;2.92;;;14.70;84.60;;;;;;4963159;28;20037;-80
2022/10/31 01:34:54;;;;;;;5.97;2.90;;;14.60;84.60;;;;;;4970114;28;20031;-81
2022/10/31 01:37:20;;;;;;;4.80;2.70;;;14.60;84.60;;;;;;4966072;28;20053;-80
2022/10/31 01:39:47;;;;;;;6.18;2.92;;;14.60;84.60;;;;;;4946977;28;20355;-80
2022/10/31 01:42:19;;;;;;;4.33;2.80;;;14.50;84.60;;;;;;4966573;28;20057;-80
2022/10/31 01:45:00;;;;;;;4.10;2.65;;;14.50;85.10;;;;;;4959883;28;20037;-80
2022/10/31 01:47:37;;;;;;;3.88;2.53;;;14.50;85.20;;;;;;4990987;28;20121;-80
2022/10/31 01:50:11;;;;;;;4.75;2.63;;;14.40;85.40;;;;;;4946756;28;20475;-80
2022/10/31 01:52:42;;;;;;;4.00;2.72;;;14.40;85.00;;;;;;4972444;28;20699;-80
2022/10/31 01:55:15;;;;;;;4.10;2.70;;;14.40;85.00;;;;;;4934160;28;20026;-81
2022/10/31 01:57:44;;;;;;;3.70;2.25;;;14.30;85.00;;;;;;4963294;28;20262;-80
2022/10/31 02:00:11;;;;;;;3.67;2.72;;;14.30;84.90;;;;;;4966450;28;20030;-80
2022/10/31 02:02:37;;;;;;;3.95;2.42;;;14.30;84.80;;;;;;4952735;28;20034;-79
2022/10/31 02:05:07;;;;;;;4.53;2.67;;;14.30;84.80;;;;;;4979023;28;20026;-79
2022/10/31 02:07:56;;;;;;;4.88;2.70;;;14.30;85.00;;;;;;4964810;28;20034;-78
2022/10/31 02:10:23;;;;;;;3.60;2.28;;;14.20;85.80;;;;;;4930804;28;20359;-79
2022/10/31 02:12:53;;;;;;;3.88;2.60;;;14.20;84.80;;;;;;4977732;28;20227;-78
2022/10/31 02:15:18;;;;;;;3.35;2.28;;;14.10;84.90;;;;;;4967787;28;20029;-78
2022/10/31 02:17:45;;;;;;;4.03;2.50;;;14.10;84.70;;;;;;4953632;28;20454;-79
2022/10/31 02:20:18;;;;;;;2.92;1.88;;;14.10;84.70;;;;;;4943733;28;20303;-79
2022/10/31 02:23:13;;;;;;;3.60;2.30;;;14.10;84.90;;;;;;4969709;28;20582;-79
2022/10/31 02:25:51;;;;;;;3.90;2.23;;;14.00;85.50;;;;;;4940506;28;20275;-78
2022/10/31 02:28:46;;;;;;;3.13;2.33;;;13.90;84.60;;;;;;4976821;28;20383;-79
2022/10/31 02:31:46;;;;;;;3.10;2.10;;;13.90;85.20;;;;;;5006021;28;20106;-78
2022/10/31 02:34:24;;;;;;;2.95;2.25;;;13.90;85.50;;;;;;4968667;28;20026;-78
2022/10/31 02:37:34;;;;;;;2.65;2.03;;;13.80;85.20;;;;;;4966493;28;20401;-78
2022/10/31 02:40:15;;;;;;;2.63;1.93;;;13.70;85.50;;;;;;4967996;28;20034;-78
2022/10/31 02:43:07;;;;;;;3.92;2.05;;;13.70;85.00;;;;;;4947489;28;20068;-79
2022/10/31 02:45:45;;;;;;;3.05;2.13;;;13.70;85.90;;;;;;4941100;28;20233;-78
2022/10/31 02:48:20;;;;;;;2.97;2.20;;;13.60;85.50;;;;;;4949873;28;20443;-79
2022/10/31 02:50:53;;;;;;;5.03;2.17;;;13.60;85.50;;;;;;4949379;28;20384;-79
2022/10/31 02:53:19;;;;;;;2.87;1.80;;;13.60;85.40;;;;;;4966060;28;20518;-78
2022/10/31 02:55:57;;;;;;;3.30;2.20;;;13.60;85.20;;;;;;4963558;28;20034;-81
2022/10/31 02:58:27;;;;;;;3.60;2.00;;;13.60;85.40;;;;;;4974740;28;20027;-81
2022/10/31 03:01:14;;;;;;;3.20;1.83;;;13.60;85.20;;;;;;4981295;28;20480;-81
2022/10/31 03:04:04;;;;;;;3.60;2.05;;;13.50;85.50;;;;;;4962596;28;20034;-81
2022/10/31 03:06:41;;;;;;;3.10;2.03;;;13.50;85.40;;;;;;4964674;28;20035;-81
2022/10/31 03:09:19;;;;;;;3.50;2.03;;;13.50;85.30;;;;;;4970554;28;20231;-81
2022/10/31 03:11:56;;;;;;;2.97;1.88;;;13.50;85.70;;;;;;4961194;28;20038;-80
2022/10/31 03:14:31;;;;;;;3.07;2.13;;;13.40;85.30;;;;;;4971817;28;20052;-80
2022/10/31 03:17:05;;;;;;;3.05;2.17;;;13.40;85.30;;;;;;4946061;28;20672;-81
2022/10/31 03:19:40;;;;;;;3.20;2.22;;;13.40;85.30;;;;;;4959333;28;20058;-81
2022/10/31 03:22:28;;;;;;;3.38;2.03;;;13.30;85.30;;;;;;4950328;28;20042;-81
2022/10/31 03:24:56;;;;;;;3.22;1.83;;;13.30;86.20;;;;;;4968646;28;20343;-81
2022/10/31 03:27:25;;;;;;;3.00;2.00;;;13.30;85.40;;;;;;4964396;28;20042;-81
2022/10/31 03:29:54;;;;;;;3.45;2.08;;;13.30;85.50;;;;;;4953793;28;20034;-81
2022/10/31 03:32:27;;;;;;;3.97;2.05;;;13.30;85.50;;;;;;4969573;28;20134;-81
2022/10/31 03:34:56;;;;;;;4.65;2.15;;;13.30;85.80;;;;;;4950337;28;20033;-81
2022/10/31 03:37:25;;;;;;;5.00;2.50;;;13.20;86.20;;;;;;4932722;28;20357;-81
2022/10/31 03:39:53;;;;;;;3.77;2.20;;;13.20;85.80;;;;;;4974628;28;20022;-81
2022/10/31 03:42:23;;;;;;;3.97;2.17;;;13.20;85.90;;;;;;4969643;28;20355;-81
2022/10/31 03:44:57;;;;;;;3.75;2.28;;;13.20;86.00;;;;;;4942799;28;20074;-81
2022/10/31 03:47:23;;;;;;;3.70;2.22;;;13.20;86.20;;;;;;4952237;28;20027;-81
2022/10/31 03:49:49;;;;;;;3.45;2.15;;;13.20;85.90;;;;;;4956403;28;20067;-81
2022/10/31 03:52:39;;;;;;;3.97;2.03;;;13.20;85.90;;;;;;4962543;28;20396;-81
2022/10/31 03:55:12;;;;;;;3.72;2.22;;;13.20;86.50;;;;;;4945196;28;20606;-78
2022/10/31 03:57:48;;;;;;;2.97;2.20;;;13.20;85.90;;;;;;4969302;28;20034;-79
2022/10/31 04:00:15;;;;;;;3.72;2.00;;;13.20;85.80;;;;;;4952727;28;20128;-79
2022/10/31 04:02:47;;;;;;;5.30;2.40;;;13.20;85.60;;;;;;4964991;28;20482;-79
2022/10/31 04:05:15;;;;;;;4.30;2.10;;;13.20;85.80;;;;;;4964592;28;20206;-78
2022/10/31 04:07:44;;;;;;;3.85;2.05;;;13.10;85.60;;;;;;4963085;28;20090;-78
2022/10/31 04:10:14;;;;;;;3.30;2.25;;;13.10;85.70;;;;;;4974591;28;20577;-79
2022/10/31 04:12:41;;;;;;;3.53;2.22;;;13.00;85.70;;;;;;4970485;28;20038;-79
2022/10/31 04:15:09;;;;;;;2.75;1.90;;;13.00;85.60;;;;;;4946209;28;20030;-79
2022/10/31 04:17:38;;;;;;;3.33;2.13;;;13.00;85.80;;;;;;4954191;28;21058;-78
2022/10/31 04:20:05;;;;;;;3.30;2.00;;;13.00;85.90;;;;;;4961184;28;20856;-78
2022/10/31 04:22:30;;;;;;;3.28;2.28;;;13.00;85.80;;;;;;4949824;28;20430;-78
2022/10/31 04:24:56;;;;;;;4.03;2.10;;;12.90;85.80;;;;;;4950814;28;20041;-79
2022/10/31 04:27:22;;;;;;;3.17;2.03;;;12.90;85.80;;;;;;4974408;28;20282;-79
2022/10/31 04:29:47;;;;;;;3.37;2.27;;;12.90;85.80;;;;;;4951995;28;20022;-78
2022/10/31 04:32:13;;;;;;;3.38;2.17;;;12.90;85.90;;;;;;4941442;28;20321;-78
2022/10/31 04:34:38;;;;;;;3.30;2.00;;;12.90;85.90;;;;;;4969690;28;20077;-78
2022/10/31 04:37:04;;;;;;;2.80;2.10;;;12.90;86.10;;;;;;4952647;28;20022;-78
2022/10/31 04:39:30;;;;;;;3.80;2.27;;;12.80;86.10;;;;;;4944405;28;20074;-78
2022/10/31 04:41:55;;;;;;;3.03;1.83;;;12.80;86.10;;;;;;4977415;28;20180;-78
2022/10/31 04:44:21;;;;;;;4.75;2.20;;;12.80;86.20;;;;;;4976652;28;20078;-78
2022/10/31 04:46:47;;;;;;;4.20;2.00;;;12.80;86.20;;;;;;4932403;28;20581;-78
2022/10/31 04:49:13;;;;;;;2.97;2.10;;;12.80;86.30;;;;;;4958203;28;20023;-78
2022/10/31 04:51:38;;;;;;;3.87;2.40;;;12.80;87.00;;;;;;4954781;28;20503;-79
2022/10/31 04:54:04;;;;;;;4.35;2.25;;;12.80;86.30;;;;;;4957014;28;20038;-78
2022/10/31 04:56:30;;;;;;;4.83;2.23;;;12.80;86.30;;;;;;4963583;28;20383;-78
2022/10/31 04:58:55;;;;;;;3.75;2.10;;;12.80;86.30;;;;;;4963668;28;20704;-78
2022/10/31 05:01:21;;;;;;;4.23;2.00;;;12.80;86.30;;;;;;4945102;28;20033;-78
2022/10/31 05:03:46;;;;;;;3.80;2.13;;;12.80;86.30;;;;;;4946683;28;20549;-78
2022/10/31 05:06:12;;;;;;;3.20;2.00;;;12.80;86.40;;;;;;4962382;28;20023;-78
2022/10/31 05:08:38;;;;;;;3.28;2.15;;;12.80;86.40;;;;;;4958306;28;20477;-78
2022/10/31 05:11:04;;;;;;;3.87;2.10;;;12.80;86.40;;;;;;4967669;28;20385;-78
2022/10/31 05:13:30;;;;;;;3.40;2.13;;;12.70;86.40;;;;;;4960016;28;20049;-78
2022/10/31 05:15:56;;;;;;;2.50;1.73;;;12.80;86.40;;;;;;4976835;28;20327;-78
2022/10/31 05:18:21;;;;;;;3.13;2.03;;;12.70;86.30;;;;;;4946970;28;20471;-78
2022/10/31 05:20:47;;;;;;;3.10;2.00;;;12.70;86.40;;;;;;4955143;28;20030;-78
2022/10/31 05:23:13;;;;;;;4.13;2.23;;;12.70;86.40;;;;;;4968699;28;20375;-78
2022/10/31 05:25:40;;;;;;;4.13;2.20;;;12.70;86.60;;;;;;4960144;28;20049;-78
2022/10/31 05:28:05;;;;;;;3.30;1.85;;;12.70;86.60;;;;;;4946184;28;20382;-78
2022/10/31 05:30:32;;;;;;;3.10;1.73;;;12.70;86.70;;;;;;4964233;28;20030;-78
2022/10/31 05:32:58;;;;;;;3.65;2.03;;;12.70;86.80;;;;;;4945521;28;20026;-78
2022/10/31 05:35:28;;;;;;;4.47;2.00;;;12.70;86.90;;;;;;4967974;28;20038;-78
2022/10/31 05:37:54;;;;;;;4.20;2.33;;;12.70;87.10;;;;;;4952680;28;20517;-78
2022/10/31 05:40:21;;;;;;;3.47;1.77;;;12.70;86.90;;;;;;4970627;28;20056;-78
2022/10/31 05:42:47;;;;;;;3.38;2.05;;;12.70;87.10;;;;;;4955322;28;20264;-78
2022/10/31 05:45:15;;;;;;;3.38;1.85;;;12.70;87.10;;;;;;4970557;28;20096;-78
2022/10/31 05:47:41;;;;;;;3.40;2.30;;;12.80;87.30;;;;;;4944769;28;20030;-78
2022/10/31 05:50:08;;;;;;;3.73;2.03;;;12.80;87.20;;;;;;4969201;28;20026;-78
2022/10/31 05:52:33;;;;;;;4.00;2.30;;;12.80;87.30;;;;;;4962790;28;20035;-78
2022/10/31 05:54:59;;;;;;;2.83;2.03;;;12.80;87.30;;;;;;4972414;28;20145;-78
2022/10/31 05:57:25;;;;;;;3.27;2.37;;;12.80;87.20;;;;;;4957822;28;20030;-78
2022/10/31 05:59:53;;;;;;;3.22;2.13;;;12.80;87.20;;;;;;4966916;28;20223;-78
2022/10/31 06:02:20;;;;;;;3.65;2.10;;;12.80;87.20;;;;;;4929470;28;20536;-78
2022/10/31 06:04:45;;;;;;;4.20;2.03;;;12.80;87.20;;;;;;4933215;28;20370;-78
2022/10/31 06:07:11;;;;;;;4.05;2.17;;;12.80;87.20;;;;;;4971825;28;20058;-78
2022/10/31 06:09:37;;;;;;;2.90;1.90;;;12.80;87.40;;;;;;4950975;28;20026;-79
2022/10/31 06:12:03;;;;;;;4.18;2.08;;;12.80;87.40;;;;;;4960305;28;20040;-78
2022/10/31 06:14:28;;;;;;;4.40;2.20;;;12.80;87.60;;;;;;4958187;28;20022;-78
2022/10/31 06:16:55;;;;;;;4.30;2.17;;;12.80;87.60;;;;;;4960506;28;20469;-78
2022/10/31 06:19:20;;;;;;;3.80;2.30;;;12.80;87.70;;;;;;4936770;28;20377;-78
2022/10/31 06:21:46;;;;;;;2.50;1.70;;;12.80;87.80;;;;;;4945956;28;20096;-79
2022/10/31 06:24:12;;;;;;;2.92;1.95;;;12.90;87.90;;;;;;4942920;28;20060;-78
2022/10/31 06:26:37;;;;;;;3.63;2.43;;;12.90;88.00;;;;;;4961350;28;20514;-79
2022/10/31 06:29:03;;;;;;;3.50;1.93;;;12.90;88.10;;;;;;4948911;28;20121;-79
2022/10/31 06:31:28;;;;;;;2.95;1.83;;;12.90;88.10;;;;;;4971639;28;20089;-78
2022/10/31 06:33:54;;;;;;;2.80;2.10;;;12.90;88.20;;;;;;4928285;28;20944;-78
2022/10/31 06:36:20;;;;;;;3.55;2.20;;;13.00;88.40;;;;;;4971622;28;20069;-78
2022/10/31 06:38:45;;;;;;;3.67;2.03;;;13.00;88.40;;;;;;4942675;28;20037;-78
2022/10/31 06:41:11;;;;;;;3.90;2.35;;;13.00;88.50;;;;;;4963564;28;20101;-79
2022/10/31 06:43:36;;;;;;;2.93;2.47;;;13.00;88.50;;;;;;4954224;28;20507;-78
2022/10/31 06:46:03;;;;;;;2.77;1.70;;;13.10;88.60;;;;;;4948996;28;20121;-79
2022/10/31 06:48:29;;;;;;;3.75;2.38;;;13.10;88.70;;;;;;4957882;28;20658;-78
2022/10/31 06:51:01;;;;;;;3.80;2.70;;;13.10;88.60;;;;;;4926323;28;20168;-78
2022/10/31 06:53:29;;;;;;;4.03;2.40;;;13.10;88.80;;;;;;4962078;28;20269;-79
2022/10/31 06:55:56;;;;;;;4.93;2.38;;;13.10;88.70;;;;;;4928777;28;20026;-79
2022/10/31 06:58:22;;;;;;;3.53;2.25;;;13.20;88.90;;;;;;4952018;28;20041;-78
2022/10/31 07:00:47;;;;;;;5.13;2.67;;;13.20;88.90;;;;;;4945672;28;20225;-79
2022/10/31 07:03:15;;;;;;;3.17;2.17;;;13.20;89.00;;;;;;4967220;28;20030;-79
2022/10/31 07:05:41;;;;;;;4.53;2.40;;;13.20;89.10;;;;;;4914345;28;25555;-78
2022/10/31 07:08:09;;;;;;;4.00;2.30;;;13.20;89.20;;;;;;4961795;28;20086;-79
2022/10/31 07:10:36;;;;;;;4.53;2.55;;;13.30;89.30;;;;;;4930614;28;20058;-78
2022/10/31 07:13:05;;;;;;;4.50;2.90;;;13.30;89.50;;;;;;4961433;28;20053;-79
2022/10/31 07:15:34;;;;;;;4.20;2.63;;;13.30;89.80;;;;;;4959542;28;20041;-78
2022/10/31 07:18:01;;;;;;;4.32;2.70;;;13.40;90.40;;;;;;4961163;28;20069;-78
2022/10/31 07:20:28;;;;;;;5.10;2.85;;;13.40;90.00;;;;;;4948265;28;20074;-78
2022/10/31 07:22:54;;;;;;;5.53;2.88;;;13.50;90.10;;;;;;4932255;28;20140;-79
2022/10/31 07:25:20;;;;;;;5.10;3.03;;;13.50;90.20;;;;;;4971658;28;20541;-78
2022/10/31 07:27:45;;;;;;;4.60;3.00;;;13.60;90.30;;;;;;4950383;28;20031;-79
2022/10/31 07:30:12;;;;;;;5.97;3.05;;;13.70;90.40;;;;;;4964971;28;20054;-79
2022/10/31 07:32:43;;;;;;;5.07;2.93;;;13.70;90.40;;;;;;4941937;28;20065;-79
2022/10/31 07:35:11;;;;;;;5.13;3.08;;;13.70;90.60;;;;;;4967636;28;20535;-79
2022/10/31 07:37:37;;;;;;;4.60;2.88;;;13.80;90.50;;;;;;4910059;28;20515;-78
2022/10/31 07:40:04;;;;;;;6.73;3.30;;;13.80;90.50;;;;;;4952682;28;20027;-81
2022/10/31 07:42:34;;;;;;;5.32;3.17;;;13.90;90.60;;;;;;4952223;28;20026;-78
2022/10/31 07:44:59;;;;;;;5.03;3.03;;;14.00;90.60;;;;;;4958336;28;20586;-78
2022/10/31 07:47:25;;;;;;;6.43;3.30;;;14.00;90.70;;;;;;4940003;28;20109;-78
2022/10/31 07:49:50;;;;;;;4.90;2.90;;;14.10;90.80;;;;;;4957258;28;20030;-78
2022/10/31 07:52:16;;;;;;;6.23;3.33;;;14.10;90.80;;;;;;4935026;28;20086;-78
2022/10/31 07:54:42;;;;;;;6.10;3.13;;;14.20;90.90;;;;;;4935618;28;20636;-78
2022/10/31 07:57:07;;;;;;;6.60;3.20;;;14.20;90.90;;;;;;4976914;28;20415;-78
2022/10/31 07:59:33;;;;;;;5.67;3.03;;;14.30;90.90;;;;;;4939886;28;20845;-78
2022/10/31 08:01:58;;;;;;;6.47;3.30;;;14.40;91.00;;;;;;4963257;28;20027;-81
2022/10/31 08:04:24;;;;;;;5.43;3.13;;;14.40;90.90;;;;;;4957472;28;20034;-81
2022/10/31 08:06:50;;;;;;;5.93;3.28;;;14.40;90.90;;;;;;4939797;28;20097;-81
2022/10/31 08:09:15;;;;;;;5.60;3.37;;;14.50;91.00;;;;;;4944998;28;20030;-81
2022/10/31 08:11:41;;;;;;;5.63;3.43;;;14.50;91.00;;;;;;4958166;28;20231;-81
2022/10/31 08:14:06;;;;;;;5.75;3.03;;;14.60;91.00;;;;;;4951863;28;20482;-81
2022/10/31 08:16:32;;;;;;;5.10;3.37;;;14.60;91.10;;;;;;4957910;28;20065;-81
2022/10/31 08:18:58;;;;;;;6.30;3.53;;;14.60;91.10;;;;;;4944942;28;20018;-81
2022/10/31 08:21:23;;;;;;;6.03;3.30;;;14.70;91.10;;;;;;4949079;28;20057;-81
2022/10/31 08:23:49;;;;;;;7.60;3.67;;;14.70;91.20;;;;;;4968727;28;20382;-81
2022/10/31 08:26:14;;;;;;;6.70;3.60;;;14.80;91.20;;;;;;4940261;28;20278;-81
2022/10/31 08:28:40;;;;;;;7.00;3.87;;;14.80;91.20;;;;;;4937746;28;21292;-81
2022/10/31 08:31:06;;;;;;;7.28;3.70;;;14.90;91.30;;;;;;4971084;28;20348;-81
2022/10/31 08:33:31;;;;;;;8.53;4.30;;;14.90;91.40;;;;;;4954972;28;20621;-81
2022/10/31 08:36:00;;;;;;;6.35;3.78;;;14.90;91.40;;;;;;4939696;28;20023;-81
2022/10/31 08:38:26;;;;;;;6.22;3.50;;;15.00;91.60;;;;;;4945026;28;20094;-81
2022/10/31 08:40:51;;;;;;;6.50;3.80;;;15.10;91.60;;;;;;4945978;28;20076;-81
2022/10/31 08:43:18;;;;;;;7.43;3.53;;;15.10;91.60;;;;;;4950507;28;20065;-81
2022/10/31 08:45:47;;;;;;;7.13;3.70;;;15.20;91.60;;;;;;4948178;28;20047;-81
2022/10/31 08:48:15;;;;;;;6.80;3.75;;;15.20;91.70;;;;;;4965469;28;20035;-81
2022/10/31 08:50:41;;;;;;;6.35;3.58;;;15.30;91.70;;;;;;4958354;28;20157;-82
2022/10/31 08:53:11;;;;;;;6.30;3.92;;;15.40;91.60;;;;;;4953424;28;20058;-79
2022/10/31 08:55:38;;;;;;;6.17;3.73;;;15.40;91.60;;;;;;4935329;28;20117;-78
2022/10/31 08:58:07;;;;;;;6.22;3.70;;;15.50;91.50;;;;;;4959621;28;20097;-79
2022/10/31 09:00:34;;;;;;;7.25;4.43;;;15.50;91.50;;;;;;4939912;28;20756;-79
2022/10/31 09:03:05;;;;;;;6.65;4.03;;;15.50;91.50;;;;;;4966249;28;20037;-79
2022/10/31 09:05:31;;;;;;;7.30;3.92;;;15.50;91.50;;;;;;4954613;28;20312;-79
2022/10/31 09:07:58;;;;;;;7.20;4.20;;;15.50;91.40;;;;;;4961214;28;20364;-80
2022/10/31 09:10:25;;;;;;;7.97;4.25;;;15.60;91.50;;;;;;4956770;28;20759;-79
2022/10/31 09:13:06;;;;;;;6.90;4.13;;;15.60;91.90;;;;;;4927504;28;20106;-79
2022/10/31 09:15:36;;;;;;;6.32;3.85;;;15.60;91.90;;;;;;4952083;28;20080;-79
2022/10/31 09:18:02;;;;;;;8.05;4.38;;;15.60;91.70;;;;;;4950145;28;20027;-78
2022/10/31 09:20:29;;;;;;;6.50;4.20;;;15.70;91.90;;;;;;4948513;28;20172;-79
2022/10/31 09:23:06;;;;;;;7.60;4.40;;;15.70;91.90;;;;;;4960550;28;20077;-79
2022/10/31 09:25:34;;;;;;;9.25;4.60;;;15.80;92.30;;;;;;4963284;28;20074;-79
2022/10/31 09:28:01;;;;;;;6.43;4.30;;;15.80;92.10;;;;;;4944574;28;20425;-79
2022/10/31 09:30:29;;;;;;;7.53;4.80;;;15.90;92.20;;;;;;4972042;28;20050;-79
2022/10/31 09:32:57;;;;;;;7.90;4.70;;;15.90;92.30;;;;;;4953346;28;20082;-79
2022/10/31 09:35:24;;;;;;;9.80;4.80;;;16.00;92.40;;;;;;4969366;28;20423;-79
2022/10/31 09:37:56;;;;;;;7.65;4.85;;;16.10;92.70;;;;;;4950111;28;20221;-79
2022/10/31 09:40:39;;;;;;;7.80;4.65;;;16.20;92.50;;;;;;4953915;28;20049;-79
2022/10/31 09:43:24;;;;;;;8.10;4.82;;;16.20;92.40;;;;;;4939808;28;20027;-79
2022/10/31 09:46:01;;;;;;;7.17;4.53;;;16.30;92.50;;;;;;4960369;28;20038;-79
2022/10/31 09:48:41;;;;;;;9.00;4.68;;;16.30;92.40;;;;;;4948762;28;20061;-79
2022/10/31 09:51:31;;;;;;;8.25;4.70;;;16.30;92.10;;;;;;4971175;28;20038;-80
2022/10/31 09:54:21;;;;;;;9.02;4.40;;;16.40;92.20;;;;;;4961108;28;20691;-80
2022/10/31 09:56:47;;;;;;;7.93;4.43;;;16.40;92.10;;;;;;4955154;28;20118;-80
2022/10/31 09:59:32;;;;;;;8.03;4.37;;;16.40;91.80;;;;;;4943277;28;20064;-81
2022/10/31 10:02:29;;;;;;;6.85;4.30;;;16.40;92.20;;;;;;4963706;28;20077;-80
2022/10/31 10:04:59;;;;;;;9.48;4.70;;;16.40;92.10;;;;;;4949956;28;20038;-80
2022/10/31 10:07:43;;;;;;;9.30;4.68;;;16.40;91.90;;;;;;4962453;28;20022;-81
2022/10/31 10:10:27;;;;;;;8.40;4.65;;;16.40;92.00;;;;;;4974973;28;20315;-80
2022/10/31 10:13:08;;;;;;;6.70;4.10;;;16.50;92.20;;;;;;4927786;28;20100;-80
2022/10/31 10:15:52;;;;;;;10.35;4.78;;;16.40;92.40;;;;;;4962454;28;20078;-80
2022/10/31 10:18:32;;;;;;;8.95;4.80;;;16.50;92.60;;;;;;4956762;28;20065;-80
2022/10/31 10:21:20;;;;;;;8.27;4.75;;;16.50;92.70;;;;;;4964220;28;20629;-80
2022/10/31 10:24:15;;;;;;;8.00;4.65;;;16.60;93.00;;;;;;4957703;28;20065;-80
2022/10/31 10:26:48;;;;;;;7.20;4.40;;;16.70;93.30;;;;;;4862204;28;20131;-80
2022/10/31 10:29:52;;;;;;;7.72;4.68;;;16.80;93.10;;;;;;4948014;28;20076;-81
2022/10/31 10:32:26;;;;;;;9.07;5.10;;;16.90;93.50;;;;;;4869388;29;20068;-80
2022/10/31 10:35:01;;;;;;;8.80;4.82;;;17.00;93.30;;;;;;4878071;29;20032;-81
2022/10/31 10:37:32;;;;;;;8.55;4.95;;;17.10;93.20;;;;;;4926767;28;20046;-81
2022/10/31 10:40:15;;;;;;;9.10;5.43;;;17.30;93.20;;;;;;4946452;28;20280;-80
2022/10/31 10:48:35;;;;;;;9.00;5.35;;;17.50;93.20;;;;;;4959768;28;20062;-80
2022/10/31 10:51:03;;;;;;;8.65;5.10;;;17.70;93.50;;;;;;4939919;28;20121;-80
2022/10/31 10:54:13;;;;;;;7.93;4.90;;;17.80;93.50;;;;;;4964226;28;20041;-80
2022/10/31 10:56:56;;;;;;;8.57;5.03;;;17.90;93.50;;;;;;4920297;28;20389;-80
2022/10/31 10:59:22;;;;;;;10.05;5.45;;;18.00;93.40;;;;;;4961426;28;20026;-80
2022/10/31 11:01:50;;;;;;;9.75;5.60;;;18.20;93.20;;;;;;4931456;28;20035;-80
2022/10/31 11:04:35;;;;;;;10.18;5.13;;;18.20;93.00;;;;;;4965618;28;20038;-80
2022/10/31 11:07:11;;;;;;;8.77;4.80;;;18.20;93.00;;;;;;4954341;28;20027;-80
2022/10/31 11:09:38;;;;;;;10.25;5.45;;;18.40;93.40;;;;;;4965851;28;20037;-80
2022/10/31 11:12:24;;;;;;;9.32;5.15;;;18.50;94.00;;;;;;4956533;28;21311;-80
2022/10/31 11:15:03;;;;;;;8.57;4.97;;;18.70;94.60;;;;;;4957542;28;20630;-80
2022/10/31 11:17:36;;;;;;;9.48;5.50;;;19.00;95.30;;;;;;4934547;28;20027;-79
2022/10/31 11:20:14;;;;;;;8.90;5.00;;;19.40;95.10;;;;;;4946682;28;20691;-79
2022/10/31 11:22:44;;;;;;;8.38;5.18;;;19.60;95.20;;;;;;4933093;28;20502;-80
2022/10/31 11:25:19;;;;;;;8.65;5.13;;;19.90;95.30;;;;;;4946632;28;20172;-80
2022/10/31 11:27:46;;;;;;;7.30;5.05;;;20.20;94.70;;;;;;4954102;28;20041;-80
2022/10/31 11:30:13;;;;;;;9.18;5.53;;;20.40;94.80;;;;;;4954597;28;20050;-79
2022/10/31 11:32:50;;;;;;;9.67;5.40;;;20.60;94.20;;;;;;4930104;28;20233;-79
2022/10/31 11:35:18;;;;;;;8.38;5.38;;;20.80;93.30;;;;;;4971050;28;20437;-80
2022/10/31 11:37:47;;;;;;;7.53;4.93;;;20.90;93.30;;;;;;4951685;28;20031;-79
2022/10/31 11:40:20;;;;;;;10.63;5.38;;;20.90;92.90;;;;;;4964534;28;20031;-80
2022/10/31 11:42:47;;;;;;;8.07;4.88;;;20.90;92.30;;;;;;4959005;28;20248;-80
2022/10/31 11:45:31;;;;;;;6.73;4.87;;;20.90;92.30;;;;;;4955427;28;20082;-79
2022/10/31 11:48:00;;;;;;;9.18;5.32;;;20.90;92.30;;;;;;4928362;28;20051;-80
2022/10/31 11:50:33;;;;;;;8.70;5.20;;;21.00;92.20;;;;;;4953472;28;20078;-80
2022/10/31 11:52:58;;;;;;;7.65;4.93;;;21.00;92.00;;;;;;4931602;28;20026;-80
2022/10/31 11:55:35;;;;;;;10.10;5.27;;;21.00;92.10;;;;;;4961463;28;20237;-80
2022/10/31 11:58:01;;;;;;;9.90;4.60;;;21.00;91.70;;;;;;4965422;28;20243;-80
2022/10/31 12:00:31;;;;;;;8.25;5.00;;;21.00;92.00;;;;;;4947906;28;20040;-80
2022/10/31 12:03:31;;;;;;;7.72;4.57;;;21.00;91.70;;;;;;4971795;28;20542;-80
2022/10/31 12:06:05;;;;;;;8.85;4.95;;;21.00;91.20;;;;;;4969281;28;20077;-80
2022/10/31 12:08:34;;;;;;;6.87;4.50;;;21.00;91.60;;;;;;4937854;28;20188;-80
2022/10/31 12:11:28;;;;;;;8.40;4.63;;;21.10;91.50;;;;;;4974086;28;20472;-81
2022/10/31 12:14:17;;;;;;;8.07;4.38;;;21.10;91.10;;;;;;4961593;28;20545;-80
2022/10/31 12:16:53;;;;;;;8.43;4.20;;;21.10;91.10;;;;;;4960963;28;20105;-80
2022/10/31 12:19:46;;;;;;;7.68;4.53;;;21.10;91.30;;;;;;4930054;28;21424;-80
2022/10/31 12:22:50;;;;;;;6.93;4.83;;;21.10;91.40;;;;;;4941675;28;20507;-81
2022/10/31 12:25:20;;;;;;;8.70;4.50;;;21.20;91.40;;;;;;4954748;28;20038;-81
2022/10/31 12:27:59;;;;;;;7.30;4.28;;;21.40;92.30;;;;;;4953038;28;20176;-80
2022/10/31 12:31:13;;;;;;;8.68;5.00;;;21.60;92.40;;;;;;4951218;28;20084;-80
2022/10/31 12:33:51;;;;;;;7.65;4.35;;;21.90;92.00;;;;;;4907230;28;20038;-81
2022/10/31 12:36:38;;;;;;;7.27;4.40;;;22.20;92.70;;;;;;4945872;28;20070;-81
2022/10/31 12:39:24;;;;;;;8.73;4.20;;;22.50;92.10;;;;;;4955323;28;20030;-81
2022/10/31 12:41:50;;;;;;;7.97;3.92;;;22.90;92.00;;;;;;4944925;28;20026;-81
2022/10/31 12:44:24;;;;;;;6.57;3.87;;;23.10;93.20;;;;;;4967052;28;20384;-81
2022/10/31 12:47:17;;;;;;;7.97;3.95;;;23.50;92.70;;;;;;4931202;28;20792;-81
2022/10/31 12:50:00;;;;;;;6.65;3.63;;;23.80;92.50;;;;;;4945400;28;20621;-80
2022/10/31 12:52:41;;;;;;;6.60;3.97;;;24.20;92.40;;;;;;4965144;28;20545;-82
2022/10/31 12:55:43;;;;;;;6.07;3.45;;;24.70;92.60;;;;;;4951333;28;20161;-83
2022/10/31 12:58:13;;;;;;;5.47;3.03;;;25.10;90.90;;;;;;4973690;28;20411;-82
2022/10/31 13:00:44;;;;;;;5.53;3.22;;;25.40;92.20;;;;;;4944876;28;20383;-82
2022/10/31 13:03:22;;;;;;;5.30;3.08;;;25.80;90.90;;;;;;4932402;28;20041;-81
2022/10/31 13:05:53;;;;;;;5.50;3.65;;;25.90;88.90;;;;;;4935249;28;20241;-81
2022/10/31 13:08:34;;;;;;;4.97;3.10;;;26.00;88.00;;;;;;4963410;28;20474;-81
2022/10/31 13:11:02;;;;;;;6.13;2.97;;;26.10;86.80;;;;;;4941001;28;20307;-82
2022/10/31 13:13:51;;;;;;;6.57;3.47;;;26.00;86.70;;;;;;4957161;28;20030;-81